createdAt,value
2017-09-24T00:01:34.017Z,99665.47
2017-09-24T00:04:01.257Z,99668.75
2017-09-24T00:06:30.773Z,99669.52
2017-09-24T00:08:57.085Z,99670.95
2017-09-24T00:11:23.514Z,99670.98
2017-09-24T00:13:51.105Z,99674.41
2017-09-24T00:16:19.087Z,99671.35
2017-09-24T00:18:45.799Z,99672.25
2017-09-24T00:21:17.244Z,99673.90
2017-09-24T00:23:43.669Z,99674.14
2017-09-24T00:26:11.778Z,99674.64
2017-09-24T00:28:45.888Z,99673.23
2017-09-24T00:31:12.916Z,99675.95
2017-09-24T00:33:39.575Z,99680.13
2017-09-24T00:36:15.529Z,99674.33
2017-09-24T00:38:46.974Z,99669.59
2017-09-24T00:41:13.295Z,99667.34
2017-09-24T00:43:42.116Z,99664.56
2017-09-24T00:46:11.110Z,99671.17
2017-09-24T00:48:43.576Z,99667.60
2017-09-24T00:51:09.906Z,99670.11
2017-09-24T00:53:36.642Z,99662.03
2017-09-24T00:56:08.393Z,99659.98
2017-09-24T00:58:35.571Z,99664.37
2017-09-24T01:01:02.307Z,99667.21
2017-09-24T01:06:08.075Z,99661.94
2017-09-24T01:08:40.055Z,99669.00
2017-09-24T01:11:12.285Z,99671.15
2017-09-24T01:13:38.829Z,99663.39
2017-09-24T01:16:05.570Z,99670.58
2017-09-24T01:18:33.673Z,99665.94
2017-09-24T01:21:01.628Z,99670.36
2017-09-24T01:23:29.081Z,99672.24
2017-09-24T01:26:02.275Z,99678.63
2017-09-24T01:28:32.559Z,99674.05
2017-09-24T01:30:59.437Z,99676.81
2017-09-24T01:33:25.977Z,99675.02
2017-09-24T01:35:52.323Z,99678.52
2017-09-24T01:38:30.621Z,99675.77
2017-09-24T01:40:58.403Z,99678.53
2017-09-24T01:43:25.150Z,99676.84
2017-09-24T01:45:52.930Z,99671.62
2017-09-24T01:48:19.240Z,99667.05
2017-09-24T01:50:46.279Z,99668.55
2017-09-24T01:53:12.606Z,99665.47
2017-09-24T01:55:39.250Z,99663.77
2017-09-24T01:58:06.204Z,99673.37
2017-09-24T02:00:37.147Z,99663.48
2017-09-24T02:03:16.889Z,99664.12
2017-09-24T02:05:44.244Z,99661.80
2017-09-24T02:08:11.918Z,99660.19
2017-09-24T02:10:38.654Z,99661.12
2017-09-24T02:15:47.096Z,99660.44
2017-09-24T02:18:13.813Z,99660.57
2017-09-24T02:20:40.359Z,99658.05
2017-09-24T02:23:08.126Z,99660.83
2017-09-24T02:25:36.299Z,99655.02
2017-09-24T02:28:02.912Z,99650.53
2017-09-24T02:30:29.670Z,99648.16
2017-09-24T02:33:02.834Z,99655.77
2017-09-24T02:35:30.852Z,99659.03
2017-09-24T02:37:58.111Z,99658.04
2017-09-24T02:40:25.683Z,99659.97
2017-09-24T02:42:53.344Z,99659.34
2017-09-24T02:45:20.585Z,99662.50
2017-09-24T02:47:47.634Z,99663.91
2017-09-24T02:50:14.467Z,99656.81
2017-09-24T02:52:41.825Z,99659.03
2017-09-24T02:55:12.861Z,99648.95
2017-09-24T02:57:40.240Z,99659.88
2017-09-24T03:00:06.567Z,99648.77
2017-09-24T03:02:37.933Z,99656.22
2017-09-24T03:05:04.849Z,99648.70
2017-09-24T03:07:32.005Z,99656.06
2017-09-24T03:09:58.250Z,99664.28
2017-09-24T03:12:26.004Z,99664.59
2017-09-24T03:14:52.646Z,99665.55
2017-09-24T03:17:21.057Z,99660.84
2017-09-24T03:19:47.337Z,99660.80
2017-09-24T03:22:13.577Z,99659.47
2017-09-24T03:24:40.230Z,99656.92
2017-09-24T03:27:07.810Z,99651.33
2017-09-24T03:29:34.106Z,99655.89
2017-09-24T03:32:00.749Z,99655.34
2017-09-24T03:34:28.647Z,99649.75
2017-09-24T03:36:57.124Z,99653.91
2017-09-24T03:39:25.102Z,99656.94
2017-09-24T03:41:51.936Z,99654.26
2017-09-24T03:44:18.253Z,99651.13
2017-09-24T03:46:44.814Z,99657.85
2017-09-24T03:49:11.335Z,99662.94
2017-09-24T03:51:38.126Z,99664.31
2017-09-24T03:54:06.053Z,99660.23
2017-09-24T03:56:32.578Z,99663.72
2017-09-24T03:59:01.271Z,99661.05
2017-09-24T04:01:28.319Z,99665.70
2017-09-24T04:03:56.098Z,99672.09
2017-09-24T04:06:22.504Z,99667.63
2017-09-24T04:08:50.063Z,99672.62
2017-09-24T04:11:21.466Z,99671.30
2017-09-24T04:13:48.160Z,99668.61
2017-09-24T04:16:14.683Z,99669.63
2017-09-24T04:18:41.031Z,99671.52
2017-09-24T04:21:07.475Z,99662.92
2017-09-24T04:23:34.318Z,99663.65
2017-09-24T04:26:02.417Z,99669.62
2017-09-24T04:28:28.721Z,99668.00
2017-09-24T04:30:55.879Z,99670.42
2017-09-24T04:33:34.397Z,99666.66
2017-09-24T04:36:00.700Z,99672.54
2017-09-24T04:38:28.708Z,99671.42
2017-09-24T04:40:54.995Z,99678.91
2017-09-24T04:43:21.272Z,99676.88
2017-09-24T04:45:47.774Z,99674.23
2017-09-24T04:48:14.619Z,99676.37
2017-09-24T04:50:43.428Z,99675.92
2017-09-24T04:53:10.576Z,99683.44
2017-09-24T04:55:37.525Z,99678.96
2017-09-24T04:58:03.716Z,99679.69
2017-09-24T05:00:34.059Z,99676.83
2017-09-24T05:03:04.282Z,99673.00
2017-09-24T05:05:31.447Z,99668.42
2017-09-24T05:07:57.792Z,99667.88
2017-09-24T05:10:24.527Z,99667.94
2017-09-24T05:12:51.670Z,99669.36
2017-09-24T05:15:18.312Z,99669.39
2017-09-24T05:17:44.849Z,99655.58
2017-09-24T05:20:13.352Z,99671.05
2017-09-24T05:22:39.965Z,99668.93
2017-09-24T05:25:07.055Z,99664.92
2017-09-24T05:27:39.717Z,99658.69
2017-09-24T05:30:06.445Z,99661.94
2017-09-24T05:32:34.276Z,99656.31
2017-09-24T05:35:00.448Z,99656.83
2017-09-24T05:37:26.759Z,99659.70
2017-09-24T05:39:54.971Z,99664.76
2017-09-24T05:42:31.365Z,99662.79
2017-09-24T05:44:58.898Z,99663.47
2017-09-24T05:47:35.998Z,99655.73
2017-09-24T05:50:06.447Z,99660.64
2017-09-24T05:57:53.568Z,99659.11
2017-09-24T06:00:20.907Z,99661.58
2017-09-24T06:02:52.304Z,99666.15
2017-09-24T06:05:31.604Z,99675.86
2017-09-24T06:08:02.125Z,99673.17
2017-09-24T06:10:29.189Z,99675.36
2017-09-24T06:12:57.271Z,99665.19
2017-09-24T06:15:23.460Z,99662.22
2017-09-24T06:17:51.704Z,99657.48
2017-09-24T06:20:25.419Z,99658.54
2017-09-24T06:22:52.754Z,99661.95
2017-09-24T06:25:19.475Z,99661.89
2017-09-24T06:27:46.806Z,99656.44
2017-09-24T06:30:14.085Z,99658.72
2017-09-24T06:32:41.734Z,99663.58
2017-09-24T06:35:08.262Z,99664.33
2017-09-24T06:37:35.645Z,99660.77
2017-09-24T06:40:02.344Z,99667.45
2017-09-24T06:42:29.317Z,99673.06
2017-09-24T06:44:57.068Z,99667.58
2017-09-24T06:47:25.803Z,99662.91
2017-09-24T06:49:52.404Z,99672.22
2017-09-24T06:52:20.479Z,99665.63
2017-09-24T06:54:47.522Z,99669.08
2017-09-24T06:57:14.389Z,99667.21
2017-09-24T06:59:46.738Z,99668.92
2017-09-24T07:02:13.424Z,99676.44
2017-09-24T07:04:40.255Z,99673.98
2017-09-24T07:12:25.647Z,99664.50
2017-09-24T07:14:52.307Z,99659.75
2017-09-24T07:19:57.278Z,99657.46
2017-09-24T07:22:25.719Z,99654.12
2017-09-24T07:24:52.991Z,99653.86
2017-09-24T07:27:20.188Z,99656.01
2017-09-24T07:29:50.072Z,99658.27
2017-09-24T07:32:18.679Z,99650.33
2017-09-24T07:37:27.389Z,99654.89
2017-09-24T07:39:53.927Z,99661.19
2017-09-24T07:42:27.519Z,99650.48
2017-09-24T07:44:55.714Z,99648.18
2017-09-24T07:50:12.219Z,99636.73
2017-09-24T07:52:40.394Z,99633.84
2017-09-24T07:55:14.933Z,99627.88
2017-09-24T07:57:41.863Z,99630.15
2017-09-24T08:00:15.351Z,99631.89
2017-09-24T08:02:41.804Z,99633.16
2017-09-24T08:05:13.143Z,99627.56
2017-09-24T08:10:20.164Z,99620.16
2017-09-24T08:12:46.675Z,99616.00
2017-09-24T08:15:16.821Z,99609.42
2017-09-24T08:20:26.177Z,99604.39
2017-09-24T08:22:53.829Z,99604.75
2017-09-24T08:25:21.659Z,99594.11
2017-09-24T08:30:29.099Z,99591.67
2017-09-24T08:32:57.382Z,99591.15
2017-09-24T08:35:25.093Z,99584.21
2017-09-24T08:37:53.110Z,99583.16
2017-09-24T08:40:20.061Z,99589.41
2017-09-24T08:45:25.626Z,99583.46
2017-09-24T08:53:10.656Z,99566.42
2017-09-24T08:55:37.251Z,99568.54
2017-09-24T08:58:14.868Z,99562.02
2017-09-24T09:00:42.234Z,99562.52
2017-09-24T09:03:12.881Z,99560.45
2017-09-24T09:05:41.014Z,99554.53
2017-09-24T09:08:12.069Z,99567.69
2017-09-24T09:10:42.419Z,99558.58
2017-09-24T09:15:51.775Z,99560.35
2017-09-24T09:18:21.919Z,99562.98
2017-09-24T09:20:49.346Z,99563.02
2017-09-24T09:23:19.858Z,99565.22
2017-09-24T09:25:48.452Z,99558.89
2017-09-24T09:28:19.524Z,99559.36
2017-09-24T09:33:25.036Z,99556.77
2017-09-24T09:35:53.251Z,99556.72
2017-09-24T09:38:19.504Z,99548.76
2017-09-24T09:40:56.681Z,99549.23
2017-09-24T09:43:29.450Z,99547.66
2017-09-24T09:51:14.665Z,99534.56
2017-09-24T09:53:42.440Z,99528.55
2017-09-24T09:56:09.196Z,99535.28
2017-09-24T09:58:35.913Z,99539.74
2017-09-24T10:01:02.481Z,99534.16
2017-09-24T10:03:32.222Z,99533.52
2017-09-24T10:06:01.555Z,99530.77
2017-09-24T10:08:28.279Z,99528.98
2017-09-24T10:10:54.565Z,99532.88
2017-09-24T10:18:37.607Z,99522.91
2017-09-24T10:21:11.078Z,99521.28
2017-09-24T10:23:41.064Z,99519.48
2017-09-24T10:26:07.402Z,99516.08
2017-09-24T10:28:37.371Z,99512.90
2017-09-24T10:31:11.298Z,99522.72
2017-09-24T10:33:39.907Z,99515.13
2017-09-24T10:36:10.579Z,99508.65
2017-09-24T10:41:18.193Z,99505.82
2017-09-24T10:43:47.519Z,99505.42
2017-09-24T10:49:04.033Z,99504.23
2017-09-24T10:54:15.528Z,99500.28
2017-09-24T10:56:49.865Z,99502.67
2017-09-24T11:02:04.751Z,99506.41
2017-09-24T11:04:31.448Z,99500.86
2017-09-24T11:07:04.453Z,99510.95
2017-09-24T11:09:30.720Z,99508.50
2017-09-24T11:11:58.946Z,99507.48
2017-09-24T11:14:26.531Z,99500.67
2017-09-24T11:19:34.763Z,99496.42
2017-09-24T11:22:09.192Z,99483.88
2017-09-24T11:24:35.612Z,99486.16
2017-09-24T11:27:02.962Z,99480.02
2017-09-24T11:29:34.032Z,99483.42
2017-09-24T11:32:00.349Z,99491.93
2017-09-24T11:34:34.348Z,99489.98
2017-09-24T11:37:05.917Z,99485.39
2017-09-24T12:11:12.739Z,99486.29
2017-09-24T12:13:46.725Z,99476.72
2017-09-24T12:18:53.433Z,99473.70
2017-09-24T13:59:08.188Z,99444.22
2017-09-24T14:01:41.797Z,99445.88
2017-09-24T14:04:14.991Z,99449.45
2017-09-24T14:06:42.695Z,99450.04
2017-09-24T14:43:30.255Z,99459.19
2017-09-24T14:48:40.691Z,99464.25
2017-09-24T15:06:05.210Z,99463.17
2017-09-24T15:08:39.068Z,99465.27
2017-09-24T15:48:02.538Z,99475.19
2017-09-24T15:50:31.745Z,99476.09
2017-09-24T15:52:59.512Z,99477.74
2017-09-24T16:03:28.266Z,99483.89
2017-09-24T16:05:55.800Z,99485.73
2017-09-24T16:13:46.468Z,99491.07
2017-09-24T16:21:36.572Z,99499.70
2017-09-24T16:24:09.469Z,99503.28
2017-09-24T16:26:45.413Z,99503.45
2017-09-24T16:29:18.981Z,99505.16
2017-09-24T16:31:57.559Z,99504.11
2017-09-24T16:37:02.534Z,99502.16
2017-09-24T16:39:34.947Z,99507.98
2017-09-24T16:42:11.238Z,99511.58
2017-09-24T16:44:42.404Z,99506.72
2017-09-24T17:05:44.170Z,99533.17
2017-09-24T17:24:03.573Z,99550.05
2017-09-24T17:29:08.746Z,99550.63
2017-09-24T17:31:40.251Z,99557.70
2017-09-24T17:34:06.428Z,99558.23
2017-09-24T17:36:32.598Z,99567.77
2017-09-24T17:38:58.768Z,99568.52
2017-09-24T17:41:24.929Z,99570.15
2017-09-24T17:43:51.105Z,99574.63
2017-09-24T17:46:17.290Z,99573.76
2017-09-24T17:48:43.467Z,99570.61
2017-09-24T17:51:09.647Z,99573.09
2017-09-24T17:53:35.826Z,99572.56
2017-09-24T17:56:02.014Z,99571.75
2017-09-24T17:58:28.192Z,99575.75
2017-09-24T18:00:54.349Z,99575.33
2017-09-24T18:03:20.548Z,99571.66
2017-09-24T18:05:46.733Z,99575.92
2017-09-24T18:08:12.924Z,99578.09
2017-09-24T18:10:39.112Z,99580.75
2017-09-24T18:13:05.298Z,99577.91
2017-09-24T18:15:31.520Z,99571.19
2017-09-24T18:17:57.707Z,99573.14
2017-09-24T18:20:23.883Z,99570.51
2017-09-24T18:22:50.085Z,99568.27
2017-09-24T18:25:16.265Z,99568.81
2017-09-24T18:27:42.445Z,99563.15
2017-09-24T18:30:08.615Z,99571.21
2017-09-24T18:32:34.816Z,99566.72
2017-09-24T18:35:01.005Z,99570.86
2017-09-24T18:37:27.168Z,99577.44
2017-09-24T18:39:53.325Z,99572.84
2017-09-24T18:42:19.506Z,99579.95
2017-09-24T18:44:45.690Z,99567.11
2017-09-24T18:47:11.885Z,99576.45
2017-09-24T18:49:38.063Z,99576.29
2017-09-24T18:52:04.243Z,99574.79
2017-09-24T18:54:30.412Z,99567.47
2017-09-24T18:56:56.591Z,99581.00
2017-09-24T18:59:22.777Z,99579.92
2017-09-24T19:01:48.987Z,99584.16
2017-09-24T19:04:15.219Z,99583.48
2017-09-24T19:06:41.405Z,99587.19
2017-09-24T19:09:07.599Z,99591.47
2017-09-24T19:11:33.831Z,99594.22
2017-09-24T19:14:00.179Z,99600.41
2017-09-24T19:16:26.348Z,99596.37
2017-09-24T19:18:52.541Z,99598.74
2017-09-24T19:21:18.711Z,99597.93
2017-09-24T19:23:44.889Z,99601.00
2017-09-24T19:26:11.064Z,99601.01
2017-09-24T19:28:37.240Z,99608.57
2017-09-24T19:31:03.408Z,99604.72
2017-09-24T19:33:29.630Z,99609.92
2017-09-24T19:35:55.792Z,99614.05
2017-09-24T19:38:22.086Z,99612.73
2017-09-24T19:40:48.263Z,99615.34
2017-09-24T19:43:14.508Z,99609.19
2017-09-24T19:45:40.745Z,99615.78
2017-09-24T19:48:06.991Z,99619.99
2017-09-24T19:50:33.207Z,99619.09
2017-09-24T19:52:59.437Z,99618.67
2017-09-24T19:55:25.674Z,99612.16
2017-09-24T19:57:51.895Z,99610.94
2017-09-24T20:00:18.117Z,99605.25
2017-09-24T20:02:44.439Z,99613.75
2017-09-24T20:05:10.678Z,99615.20
2017-09-24T20:07:36.924Z,99622.95
2017-09-24T20:10:03.173Z,99623.31
2017-09-24T20:12:29.368Z,99618.51
2017-09-24T20:14:55.568Z,99625.48
2017-09-24T20:17:21.842Z,99629.08
2017-09-24T20:19:48.089Z,99635.19
2017-09-24T20:22:14.296Z,99634.85
2017-09-24T20:24:40.524Z,99638.03
2017-09-24T20:27:06.748Z,99638.64
2017-09-24T20:29:33.004Z,99639.84
2017-09-24T20:31:59.212Z,99641.45
2017-09-24T20:34:25.450Z,99648.89
2017-09-24T20:36:51.734Z,99654.69
2017-09-24T20:39:18.017Z,99653.05
2017-09-24T20:41:44.245Z,99652.22
2017-09-24T20:44:10.474Z,99655.08
2017-09-24T20:46:36.698Z,99646.39
2017-09-24T20:49:02.931Z,99648.97
2017-09-24T20:51:29.167Z,99644.92
2017-09-24T20:53:55.393Z,99646.53
2017-09-24T20:56:21.631Z,99641.77
2017-09-24T20:58:47.851Z,99650.28
2017-09-24T21:01:14.041Z,99652.36
2017-09-24T21:03:40.305Z,99648.81
2017-09-24T21:06:06.529Z,99646.17
2017-09-24T21:08:32.802Z,99645.78
2017-09-24T21:10:58.996Z,99645.92
2017-09-24T21:13:25.236Z,99647.97
2017-09-24T21:15:51.444Z,99642.92
2017-09-24T21:18:17.661Z,99641.95
2017-09-24T21:20:43.913Z,99643.02
2017-09-24T21:23:10.156Z,99643.37
2017-09-24T21:25:36.362Z,99643.87
2017-09-24T21:28:02.597Z,99647.58
2017-09-24T21:30:28.850Z,99648.61
2017-09-24T21:32:55.065Z,99646.80
2017-09-24T21:35:21.284Z,99642.25
2017-09-24T21:37:47.537Z,99648.78
2017-09-24T21:40:13.774Z,99645.79
2017-09-24T21:42:39.983Z,99647.78
2017-09-24T21:45:06.205Z,99641.56
2017-09-24T21:47:32.364Z,99641.80
2017-09-24T21:49:58.562Z,99631.84
2017-09-24T21:52:24.795Z,99638.61
2017-09-24T21:54:51.021Z,99640.23
2017-09-24T21:57:17.253Z,99644.53
2017-09-24T21:59:43.486Z,99648.73
2017-09-24T22:02:09.715Z,99642.69
2017-09-24T22:04:35.928Z,99651.83
2017-09-24T22:07:02.164Z,99654.48
2017-09-24T22:09:28.417Z,99653.02
2017-09-24T22:11:54.629Z,99654.38
2017-09-24T22:14:20.863Z,99651.37
2017-09-24T22:16:47.089Z,99652.69
2017-09-24T22:19:13.309Z,99658.86
2017-09-24T22:21:39.564Z,99663.14
2017-09-24T22:24:05.780Z,99656.93
2017-09-24T22:26:32.015Z,99659.91
2017-09-24T22:28:58.258Z,99661.44
2017-09-24T22:31:24.475Z,99665.50
2017-09-24T22:33:50.712Z,99659.66
2017-09-24T22:36:16.936Z,99658.20
2017-09-24T22:38:43.165Z,99660.06
2017-09-24T22:41:09.394Z,99659.46
2017-09-24T22:43:35.632Z,99655.20
2017-09-24T22:46:01.831Z,99654.81
2017-09-24T22:48:28.097Z,99659.25
2017-09-24T22:50:54.312Z,99663.38
2017-09-24T22:53:20.552Z,99655.85
2017-09-24T22:55:46.770Z,99658.49
2017-09-24T22:58:13.000Z,99656.39
2017-09-24T23:00:39.182Z,99656.82
2017-09-24T23:03:05.368Z,99662.23
2017-09-24T23:05:31.581Z,99667.34
2017-09-24T23:07:57.818Z,99667.76
2017-09-24T23:10:24.059Z,99666.58
2017-09-24T23:12:50.275Z,99665.02
2017-09-24T23:15:16.566Z,99667.18
2017-09-24T23:17:42.843Z,99668.39
2017-09-24T23:20:09.051Z,99667.31
2017-09-24T23:22:35.284Z,99671.84
2017-09-24T23:25:01.539Z,99671.81
2017-09-24T23:27:27.755Z,99671.97
2017-09-24T23:29:53.976Z,99680.36
2017-09-24T23:32:20.215Z,99683.31
2017-09-24T23:34:46.435Z,99680.07
2017-09-24T23:37:12.666Z,99682.38
2017-09-24T23:39:38.914Z,99680.45
2017-09-24T23:42:05.125Z,99678.11
2017-09-24T23:44:31.359Z,99676.36
2017-09-24T23:46:57.537Z,99669.32
2017-09-24T23:49:23.720Z,99664.31
2017-09-24T23:51:49.952Z,99662.72
2017-09-24T23:54:16.199Z,99662.34
2017-09-24T23:56:42.410Z,99664.55
2017-09-24T23:59:08.633Z,99660.75
